Terminal Aerodrome Forecast
Issued by NWS

Home | Current Version | Previous Version | Text Only | Print | Product List | Glossary On
Versions: 1 2 3 4 5 6 7 8 9 10 11 12 13 14 15 16 17
208
FTUS46 KSTO 222328
TAFSCK
TAF
KSCK 222328Z 2300/2324 VRB03KT P6SM BKN150
     FM230600 VRB03KT 2SM BR BKN250
     FM231200 VRB03KT 1/4SM FG VV001
     FM232000 31005KT 3SM BR SCT010
     FM232100 31005KT P6SM BKN150=

USA.gov is the U.S. government's official web portal to all federal, state and local government web resources and services.